sensor_id;sensor_type;location;lat;lon;timestamp;P1;durP1;ratioP1;P2;durP2;ratioP2
67757;SDS011;54562;47.620;18.786;2022-11-20T00:01:09;13.30;;;5.50;;
67757;SDS011;54562;47.620;18.786;2022-11-20T00:04:18;8.70;;;4.10;;
67757;SDS011;54562;47.620;18.786;2022-11-20T00:07:26;12.30;;;5.70;;
67757;SDS011;54562;47.620;18.786;2022-11-20T00:10:37;14.50;;;6.50;;
67757;SDS011;54562;47.620;18.786;2022-11-20T00:13:48;13.30;;;6.20;;
67757;SDS011;54562;47.620;18.786;2022-11-20T00:16:57;10.40;;;5.00;;
67757;SDS011;54562;47.620;18.786;2022-11-20T00:20:07;13.70;;;6.60;;
67757;SDS011;54562;47.620;18.786;2022-11-20T00:23:17;14.80;;;7.10;;
67757;SDS011;54562;47.620;18.786;2022-11-20T00:26:26;17.10;;;8.60;;
67757;SDS011;54562;47.620;18.786;2022-11-20T00:29:35;12.30;;;5.80;;
67757;SDS011;54562;47.620;18.786;2022-11-20T00:32:44;13.10;;;5.80;;
67757;SDS011;54562;47.620;18.786;2022-11-20T00:35:52;14.50;;;6.90;;
67757;SDS011;54562;47.620;18.786;2022-11-20T00:39:05;17.00;;;8.30;;
67757;SDS011;54562;47.620;18.786;2022-11-20T00:42:13;15.50;;;7.40;;
67757;SDS011;54562;47.620;18.786;2022-11-20T00:45:21;17.50;;;8.00;;
67757;SDS011;54562;47.620;18.786;2022-11-20T00:48:30;13.40;;;6.30;;
67757;SDS011;54562;47.620;18.786;2022-11-20T00:51:38;14.00;;;7.20;;
67757;SDS011;54562;47.620;18.786;2022-11-20T00:54:49;14.00;;;7.10;;
67757;SDS011;54562;47.620;18.786;2022-11-20T00:57:58;14.60;;;6.60;;
67757;SDS011;54562;47.620;18.786;2022-11-20T01:01:09;13.70;;;7.20;;
67757;SDS011;54562;47.620;18.786;2022-11-20T01:04:19;13.40;;;6.10;;
67757;SDS011;54562;47.620;18.786;2022-11-20T01:07:28;14.90;;;7.40;;
67757;SDS011;54562;47.620;18.786;2022-11-20T01:10:37;14.50;;;7.10;;
67757;SDS011;54562;47.620;18.786;2022-11-20T01:13:47;16.30;;;7.70;;
67757;SDS011;54562;47.620;18.786;2022-11-20T01:16:57;12.50;;;6.50;;
67757;SDS011;54562;47.620;18.786;2022-11-20T01:20:09;15.80;;;7.20;;
67757;SDS011;54562;47.620;18.786;2022-11-20T01:23:18;16.20;;;8.10;;
67757;SDS011;54562;47.620;18.786;2022-11-20T01:26:27;14.40;;;7.50;;
67757;SDS011;54562;47.620;18.786;2022-11-20T01:29:37;15.20;;;7.70;;
67757;SDS011;54562;47.620;18.786;2022-11-20T01:32:49;16.90;;;8.20;;
67757;SDS011;54562;47.620;18.786;2022-11-20T01:36:06;20.80;;;9.10;;
67757;SDS011;54562;47.620;18.786;2022-11-20T01:39:17;21.70;;;8.90;;
67757;SDS011;54562;47.620;18.786;2022-11-20T01:42:27;19.10;;;8.70;;
67757;SDS011;54562;47.620;18.786;2022-11-20T01:46:02;17.50;;;8.50;;
67757;SDS011;54562;47.620;18.786;2022-11-20T01:49:18;18.70;;;9.00;;
67757;SDS011;54562;47.620;18.786;2022-11-20T01:52:32;18.90;;;9.20;;
67757;SDS011;54562;47.620;18.786;2022-11-20T01:55:47;17.00;;;7.80;;
67757;SDS011;54562;47.620;18.786;2022-11-20T01:59:01;15.10;;;7.60;;
67757;SDS011;54562;47.620;18.786;2022-11-20T02:02:13;19.20;;;8.90;;
67757;SDS011;54562;47.620;18.786;2022-11-20T02:05:27;16.00;;;7.10;;
67757;SDS011;54562;47.620;18.786;2022-11-20T02:08:39;13.80;;;7.60;;
67757;SDS011;54562;47.620;18.786;2022-11-20T02:11:47;19.00;;;8.30;;
67757;SDS011;54562;47.620;18.786;2022-11-20T02:14:56;17.90;;;8.60;;
67757;SDS011;54562;47.620;18.786;2022-11-20T02:18:04;15.50;;;7.30;;
67757;SDS011;54562;47.620;18.786;2022-11-20T02:21:21;14.30;;;7.70;;
67757;SDS011;54562;47.620;18.786;2022-11-20T02:24:35;18.40;;;8.40;;
67757;SDS011;54562;47.620;18.786;2022-11-20T02:27:44;19.30;;;8.60;;
67757;SDS011;54562;47.620;18.786;2022-11-20T02:30:52;18.70;;;8.20;;
67757;SDS011;54562;47.620;18.786;2022-11-20T02:34:01;20.50;;;9.90;;
67757;SDS011;54562;47.620;18.786;2022-11-20T02:37:08;18.70;;;8.60;;
67757;SDS011;54562;47.620;18.786;2022-11-20T02:40:17;19.20;;;9.70;;
67757;SDS011;54562;47.620;18.786;2022-11-20T02:43:25;16.70;;;8.50;;
67757;SDS011;54562;47.620;18.786;2022-11-20T02:46:33;19.00;;;9.10;;
67757;SDS011;54562;47.620;18.786;2022-11-20T02:49:41;17.70;;;9.10;;
67757;SDS011;54562;47.620;18.786;2022-11-20T02:52:52;17.60;;;8.80;;
67757;SDS011;54562;47.620;18.786;2022-11-20T02:56:00;18.60;;;8.50;;
67757;SDS011;54562;47.620;18.786;2022-11-20T02:59:08;18.30;;;9.00;;
67757;SDS011;54562;47.620;18.786;2022-11-20T03:02:16;18.00;;;9.30;;
67757;SDS011;54562;47.620;18.786;2022-11-20T03:05:25;16.30;;;7.80;;
67757;SDS011;54562;47.620;18.786;2022-11-20T03:08:33;18.40;;;8.80;;
67757;SDS011;54562;47.620;18.786;2022-11-20T03:11:42;16.60;;;8.70;;
67757;SDS011;54562;47.620;18.786;2022-11-20T03:14:50;14.70;;;7.40;;
67757;SDS011;54562;47.620;18.786;2022-11-20T03:18:01;17.20;;;7.80;;
67757;SDS011;54562;47.620;18.786;2022-11-20T03:21:10;19.80;;;9.20;;
67757;SDS011;54562;47.620;18.786;2022-11-20T03:24:19;16.90;;;8.30;;
67757;SDS011;54562;47.620;18.786;2022-11-20T03:27:27;15.80;;;7.70;;
67757;SDS011;54562;47.620;18.786;2022-11-20T03:30:40;16.40;;;8.90;;
67757;SDS011;54562;47.620;18.786;2022-11-20T03:33:48;17.90;;;9.00;;
67757;SDS011;54562;47.620;18.786;2022-11-20T03:36:56;19.20;;;9.10;;
67757;SDS011;54562;47.620;18.786;2022-11-20T03:40:08;15.40;;;7.90;;
67757;SDS011;54562;47.620;18.786;2022-11-20T03:43:17;19.50;;;9.70;;
67757;SDS011;54562;47.620;18.786;2022-11-20T03:46:26;18.50;;;8.70;;
67757;SDS011;54562;47.620;18.786;2022-11-20T03:49:34;23.60;;;10.60;;
67757;SDS011;54562;47.620;18.786;2022-11-20T03:52:43;22.30;;;11.20;;
67757;SDS011;54562;47.620;18.786;2022-11-20T03:55:53;20.70;;;10.00;;
67757;SDS011;54562;47.620;18.786;2022-11-20T03:59:01;20.30;;;9.90;;
67757;SDS011;54562;47.620;18.786;2022-11-20T04:02:09;16.60;;;8.80;;
67757;SDS011;54562;47.620;18.786;2022-11-20T04:05:42;19.50;;;9.90;;
67757;SDS011;54562;47.620;18.786;2022-11-20T04:08:50;25.40;;;11.10;;
67757;SDS011;54562;47.620;18.786;2022-11-20T04:11:59;19.10;;;9.60;;
67757;SDS011;54562;47.620;18.786;2022-11-20T04:15:10;22.30;;;10.70;;
67757;SDS011;54562;47.620;18.786;2022-11-20T04:18:18;24.20;;;11.00;;
67757;SDS011;54562;47.620;18.786;2022-11-20T04:21:27;23.60;;;10.40;;
67757;SDS011;54562;47.620;18.786;2022-11-20T04:24:35;21.80;;;10.10;;
67757;SDS011;54562;47.620;18.786;2022-11-20T04:27:45;22.80;;;10.30;;
67757;SDS011;54562;47.620;18.786;2022-11-20T04:30:53;20.40;;;10.00;;
67757;SDS011;54562;47.620;18.786;2022-11-20T04:34:13;20.80;;;10.10;;
67757;SDS011;54562;47.620;18.786;2022-11-20T04:37:21;20.70;;;9.90;;
67757;SDS011;54562;47.620;18.786;2022-11-20T04:40:39;20.50;;;9.70;;
67757;SDS011;54562;47.620;18.786;2022-11-20T04:43:50;20.90;;;10.20;;
67757;SDS011;54562;47.620;18.786;2022-11-20T04:47:04;19.10;;;9.60;;
67757;SDS011;54562;47.620;18.786;2022-11-20T04:50:12;20.90;;;10.50;;
67757;SDS011;54562;47.620;18.786;2022-11-20T04:53:22;21.90;;;9.70;;
67757;SDS011;54562;47.620;18.786;2022-11-20T04:56:30;18.70;;;10.00;;
67757;SDS011;54562;47.620;18.786;2022-11-20T04:59:38;20.80;;;10.50;;
67757;SDS011;54562;47.620;18.786;2022-11-20T05:02:46;20.50;;;9.20;;
67757;SDS011;54562;47.620;18.786;2022-11-20T05:05:57;17.90;;;9.00;;
67757;SDS011;54562;47.620;18.786;2022-11-20T05:09:08;19.80;;;10.00;;
67757;SDS011;54562;47.620;18.786;2022-11-20T05:12:16;19.50;;;9.00;;
67757;SDS011;54562;47.620;18.786;2022-11-20T05:15:24;21.40;;;9.60;;
67757;SDS011;54562;47.620;18.786;2022-11-20T05:18:33;20.20;;;8.10;;
67757;SDS011;54562;47.620;18.786;2022-11-20T05:21:41;20.70;;;10.20;;
67757;SDS011;54562;47.620;18.786;2022-11-20T05:24:50;21.30;;;10.60;;
67757;SDS011;54562;47.620;18.786;2022-11-20T05:27:58;20.10;;;9.10;;
67757;SDS011;54562;47.620;18.786;2022-11-20T05:31:10;22.90;;;10.30;;
67757;SDS011;54562;47.620;18.786;2022-11-20T05:34:19;20.90;;;10.20;;
67757;SDS011;54562;47.620;18.786;2022-11-20T05:37:28;19.60;;;10.00;;
67757;SDS011;54562;47.620;18.786;2022-11-20T05:40:36;22.20;;;10.40;;
67757;SDS011;54562;47.620;18.786;2022-11-20T05:43:46;18.20;;;9.20;;
67757;SDS011;54562;47.620;18.786;2022-11-20T05:46:55;23.10;;;10.30;;
67757;SDS011;54562;47.620;18.786;2022-11-20T05:50:04;21.40;;;10.60;;
67757;SDS011;54562;47.620;18.786;2022-11-20T05:53:15;22.60;;;10.50;;
67757;SDS011;54562;47.620;18.786;2022-11-20T05:56:23;23.50;;;11.30;;
67757;SDS011;54562;47.620;18.786;2022-11-20T05:59:31;19.80;;;10.20;;
67757;SDS011;54562;47.620;18.786;2022-11-20T06:02:39;22.60;;;10.20;;
67757;SDS011;54562;47.620;18.786;2022-11-20T06:05:48;23.50;;;11.30;;
67757;SDS011;54562;47.620;18.786;2022-11-20T06:08:56;21.20;;;10.70;;
67757;SDS011;54562;47.620;18.786;2022-11-20T06:12:05;21.00;;;11.20;;
67757;SDS011;54562;47.620;18.786;2022-11-20T06:15:13;20.50;;;10.00;;
67757;SDS011;54562;47.620;18.786;2022-11-20T06:18:21;22.80;;;11.10;;
67757;SDS011;54562;47.620;18.786;2022-11-20T06:21:32;25.50;;;11.40;;
67757;SDS011;54562;47.620;18.786;2022-11-20T06:24:40;25.90;;;11.90;;
67757;SDS011;54562;47.620;18.786;2022-11-20T06:27:48;22.60;;;10.40;;
67757;SDS011;54562;47.620;18.786;2022-11-20T06:30:56;22.70;;;11.50;;
67757;SDS011;54562;47.620;18.786;2022-11-20T06:34:04;22.10;;;11.50;;
67757;SDS011;54562;47.620;18.786;2022-11-20T06:37:13;22.40;;;11.60;;
67757;SDS011;54562;47.620;18.786;2022-11-20T06:40:23;26.70;;;12.20;;
67757;SDS011;54562;47.620;18.786;2022-11-20T06:43:31;29.10;;;12.40;;
67757;SDS011;54562;47.620;18.786;2022-11-20T06:46:39;25.80;;;12.30;;
67757;SDS011;54562;47.620;18.786;2022-11-20T06:49:47;25.10;;;12.60;;
67757;SDS011;54562;47.620;18.786;2022-11-20T06:52:55;29.50;;;13.70;;
67757;SDS011;54562;47.620;18.786;2022-11-20T06:56:06;26.70;;;13.10;;
67757;SDS011;54562;47.620;18.786;2022-11-20T06:59:15;27.50;;;12.30;;
67757;SDS011;54562;47.620;18.786;2022-11-20T07:02:26;25.20;;;12.30;;
67757;SDS011;54562;47.620;18.786;2022-11-20T07:05:35;25.00;;;11.50;;
67757;SDS011;54562;47.620;18.786;2022-11-20T07:08:45;31.50;;;13.90;;
67757;SDS011;54562;47.620;18.786;2022-11-20T07:11:53;25.40;;;12.00;;
67757;SDS011;54562;47.620;18.786;2022-11-20T07:15:02;22.60;;;11.80;;
67757;SDS011;54562;47.620;18.786;2022-11-20T07:18:11;26.40;;;12.00;;
67757;SDS011;54562;47.620;18.786;2022-11-20T07:21:19;26.80;;;11.70;;
67757;SDS011;54562;47.620;18.786;2022-11-20T07:24:27;24.10;;;11.00;;
67757;SDS011;54562;47.620;18.786;2022-11-20T07:27:35;24.00;;;11.00;;
67757;SDS011;54562;47.620;18.786;2022-11-20T07:30:46;27.70;;;11.80;;
67757;SDS011;54562;47.620;18.786;2022-11-20T07:33:57;29.80;;;12.90;;
67757;SDS011;54562;47.620;18.786;2022-11-20T07:37:05;21.00;;;9.90;;
67757;SDS011;54562;47.620;18.786;2022-11-20T07:40:14;26.70;;;12.30;;
67757;SDS011;54562;47.620;18.786;2022-11-20T07:43:24;27.70;;;12.80;;
67757;SDS011;54562;47.620;18.786;2022-11-20T07:46:32;29.00;;;13.00;;
67757;SDS011;54562;47.620;18.786;2022-11-20T07:49:41;27.90;;;13.30;;
67757;SDS011;54562;47.620;18.786;2022-11-20T07:52:49;28.80;;;12.80;;
67757;SDS011;54562;47.620;18.786;2022-11-20T07:56:00;26.20;;;12.90;;
67757;SDS011;54562;47.620;18.786;2022-11-20T07:59:08;28.60;;;12.40;;
67757;SDS011;54562;47.620;18.786;2022-11-20T08:02:17;33.50;;;14.80;;
67757;SDS011;54562;47.620;18.786;2022-11-20T08:05:26;28.40;;;13.50;;
67757;SDS011;54562;47.620;18.786;2022-11-20T08:08:35;26.50;;;14.00;;
67757;SDS011;54562;47.620;18.786;2022-11-20T08:11:47;27.30;;;13.30;;
67757;SDS011;54562;47.620;18.786;2022-11-20T08:15:13;28.10;;;12.50;;
67757;SDS011;54562;47.620;18.786;2022-11-20T08:18:21;27.60;;;13.10;;
67757;SDS011;54562;47.620;18.786;2022-11-20T08:21:37;24.30;;;11.10;;
67757;SDS011;54562;47.620;18.786;2022-11-20T08:24:45;26.00;;;11.90;;
67757;SDS011;54562;47.620;18.786;2022-11-20T08:27:54;23.50;;;11.90;;
67757;SDS011;54562;47.620;18.786;2022-11-20T08:31:06;27.10;;;12.50;;
67757;SDS011;54562;47.620;18.786;2022-11-20T08:34:16;26.40;;;12.80;;
67757;SDS011;54562;47.620;18.786;2022-11-20T08:37:26;25.20;;;13.00;;
67757;SDS011;54562;47.620;18.786;2022-11-20T08:40:34;23.90;;;10.30;;
67757;SDS011;54562;47.620;18.786;2022-11-20T08:43:43;24.00;;;10.60;;
67757;SDS011;54562;47.620;18.786;2022-11-20T08:46:51;28.30;;;12.70;;
67757;SDS011;54562;47.620;18.786;2022-11-20T08:49:59;26.60;;;11.90;;
67757;SDS011;54562;47.620;18.786;2022-11-20T08:53:08;23.30;;;11.50;;
67757;SDS011;54562;47.620;18.786;2022-11-20T08:56:17;26.20;;;12.30;;
67757;SDS011;54562;47.620;18.786;2022-11-20T08:59:25;26.90;;;12.60;;
67757;SDS011;54562;47.620;18.786;2022-11-20T09:02:55;27.20;;;12.90;;
67757;SDS011;54562;47.620;18.786;2022-11-20T09:06:06;22.90;;;12.10;;
67757;SDS011;54562;47.620;18.786;2022-11-20T09:09:15;27.80;;;12.50;;
67757;SDS011;54562;47.620;18.786;2022-11-20T09:12:25;28.60;;;13.10;;
67757;SDS011;54562;47.620;18.786;2022-11-20T09:15:34;28.00;;;12.80;;
67757;SDS011;54562;47.620;18.786;2022-11-20T09:18:42;27.00;;;13.00;;
67757;SDS011;54562;47.620;18.786;2022-11-20T09:21:50;31.40;;;14.10;;
67757;SDS011;54562;47.620;18.786;2022-11-20T09:25:04;29.40;;;13.50;;
67757;SDS011;54562;47.620;18.786;2022-11-20T09:28:13;30.50;;;14.70;;
67757;SDS011;54562;47.620;18.786;2022-11-20T09:31:25;29.30;;;14.80;;
67757;SDS011;54562;47.620;18.786;2022-11-20T09:34:34;28.60;;;14.20;;
67757;SDS011;54562;47.620;18.786;2022-11-20T09:37:43;29.30;;;14.20;;
67757;SDS011;54562;47.620;18.786;2022-11-20T09:40:57;28.50;;;14.90;;
67757;SDS011;54562;47.620;18.786;2022-11-20T09:44:23;36.60;;;16.20;;
67757;SDS011;54562;47.620;18.786;2022-11-20T09:47:51;31.70;;;15.40;;
67757;SDS011;54562;47.620;18.786;2022-11-20T09:51:28;35.10;;;15.80;;
67757;SDS011;54562;47.620;18.786;2022-11-20T09:54:42;32.80;;;14.90;;
67757;SDS011;54562;47.620;18.786;2022-11-20T09:57:53;33.00;;;15.50;;
67757;SDS011;54562;47.620;18.786;2022-11-20T10:01:12;31.20;;;14.90;;
67757;SDS011;54562;47.620;18.786;2022-11-20T10:04:23;31.60;;;14.20;;
67757;SDS011;54562;47.620;18.786;2022-11-20T10:07:39;33.10;;;15.50;;
67757;SDS011;54562;47.620;18.786;2022-11-20T10:10:56;34.10;;;16.30;;
67757;SDS011;54562;47.620;18.786;2022-11-20T10:14:18;30.50;;;14.90;;
67757;SDS011;54562;47.620;18.786;2022-11-20T10:17:58;31.90;;;15.20;;
67757;SDS011;54562;47.620;18.786;2022-11-20T10:21:23;34.10;;;15.60;;
67757;SDS011;54562;47.620;18.786;2022-11-20T10:24:47;29.20;;;14.50;;
67757;SDS011;54562;47.620;18.786;2022-11-20T10:28:11;32.20;;;15.30;;
67757;SDS011;54562;47.620;18.786;2022-11-20T10:31:39;34.90;;;15.20;;
67757;SDS011;54562;47.620;18.786;2022-11-20T10:34:52;30.90;;;14.90;;
67757;SDS011;54562;47.620;18.786;2022-11-20T10:38:09;30.20;;;14.00;;
67757;SDS011;54562;47.620;18.786;2022-11-20T10:41:27;29.40;;;15.00;;
67757;SDS011;54562;47.620;18.786;2022-11-20T10:44:46;29.50;;;14.50;;
67757;SDS011;54562;47.620;18.786;2022-11-20T10:48:16;29.30;;;13.80;;
67757;SDS011;54562;47.620;18.786;2022-11-20T10:51:37;29.50;;;14.30;;
67757;SDS011;54562;47.620;18.786;2022-11-20T10:54:58;31.70;;;16.00;;
67757;SDS011;54562;47.620;18.786;2022-11-20T11:01:24;30.10;;;14.30;;
67757;SDS011;54562;47.620;18.786;2022-11-20T11:04:39;29.20;;;13.50;;
67757;SDS011;54562;47.620;18.786;2022-11-20T11:07:52;29.80;;;15.10;;
67757;SDS011;54562;47.620;18.786;2022-11-20T11:11:07;29.90;;;15.30;;
67757;SDS011;54562;47.620;18.786;2022-11-20T11:14:24;28.80;;;15.00;;
67757;SDS011;54562;47.620;18.786;2022-11-20T11:17:33;27.90;;;14.90;;
67757;SDS011;54562;47.620;18.786;2022-11-20T11:20:51;30.50;;;15.60;;
67757;SDS011;54562;47.620;18.786;2022-11-20T11:24:04;34.50;;;16.50;;
67757;SDS011;54562;47.620;18.786;2022-11-20T11:27:48;29.80;;;14.90;;
67757;SDS011;54562;47.620;18.786;2022-11-20T11:31:00;32.40;;;15.40;;
67757;SDS011;54562;47.620;18.786;2022-11-20T11:34:12;33.50;;;16.90;;
67757;SDS011;54562;47.620;18.786;2022-11-20T11:37:22;29.40;;;15.00;;
67757;SDS011;54562;47.620;18.786;2022-11-20T11:40:36;28.00;;;14.70;;
67757;SDS011;54562;47.620;18.786;2022-11-20T11:43:52;29.50;;;13.60;;
67757;SDS011;54562;47.620;18.786;2022-11-20T11:47:22;28.80;;;14.60;;
67757;SDS011;54562;47.620;18.786;2022-11-20T11:50:32;29.30;;;14.80;;
67757;SDS011;54562;47.620;18.786;2022-11-20T11:53:42;30.90;;;15.50;;
67757;SDS011;54562;47.620;18.786;2022-11-20T11:56:55;29.20;;;14.40;;
67757;SDS011;54562;47.620;18.786;2022-11-20T12:00:09;27.70;;;14.10;;
67757;SDS011;54562;47.620;18.786;2022-11-20T12:03:21;29.50;;;14.50;;
67757;SDS011;54562;47.620;18.786;2022-11-20T12:06:38;29.40;;;14.80;;
67757;SDS011;54562;47.620;18.786;2022-11-20T12:09:53;28.90;;;14.10;;
67757;SDS011;54562;47.620;18.786;2022-11-20T12:13:08;28.00;;;13.80;;
67757;SDS011;54562;47.620;18.786;2022-11-20T12:16:28;30.10;;;15.40;;
67757;SDS011;54562;47.620;18.786;2022-11-20T12:19:40;31.80;;;16.10;;
67757;SDS011;54562;47.620;18.786;2022-11-20T12:22:56;28.40;;;13.80;;
67757;SDS011;54562;47.620;18.786;2022-11-20T12:26:22;30.50;;;14.20;;
67757;SDS011;54562;47.620;18.786;2022-11-20T12:29:52;34.00;;;15.20;;
67757;SDS011;54562;47.620;18.786;2022-11-20T12:33:15;30.30;;;14.30;;
67757;SDS011;54562;47.620;18.786;2022-11-20T12:36:43;26.10;;;11.90;;
67757;SDS011;54562;47.620;18.786;2022-11-20T12:40:01;31.30;;;14.90;;
67757;SDS011;54562;47.620;18.786;2022-11-20T12:43:23;26.10;;;13.20;;
67757;SDS011;54562;47.620;18.786;2022-11-20T12:46:55;30.30;;;14.60;;
67757;SDS011;54562;47.620;18.786;2022-11-20T12:50:22;25.80;;;12.10;;
67757;SDS011;54562;47.620;18.786;2022-11-20T12:54:09;25.50;;;12.40;;
67757;SDS011;54562;47.620;18.786;2022-11-20T12:57:38;28.60;;;13.80;;
67757;SDS011;54562;47.620;18.786;2022-11-20T13:01:00;26.80;;;12.30;;
67757;SDS011;54562;47.620;18.786;2022-11-20T13:04:59;31.10;;;14.60;;
67757;SDS011;54562;47.620;18.786;2022-11-20T13:08:26;29.80;;;15.20;;
67757;SDS011;54562;47.620;18.786;2022-11-20T13:11:41;30.70;;;15.10;;
67757;SDS011;54562;47.620;18.786;2022-11-20T13:15:00;30.50;;;14.70;;
67757;SDS011;54562;47.620;18.786;2022-11-20T13:18:16;31.80;;;15.00;;
67757;SDS011;54562;47.620;18.786;2022-11-20T13:21:39;27.30;;;13.60;;
67757;SDS011;54562;47.620;18.786;2022-11-20T13:24:52;29.40;;;14.80;;
67757;SDS011;54562;47.620;18.786;2022-11-20T13:31:38;28.20;;;14.10;;
67757;SDS011;54562;47.620;18.786;2022-11-20T13:34:59;30.10;;;14.80;;
67757;SDS011;54562;47.620;18.786;2022-11-20T13:41:27;32.80;;;15.40;;
67757;SDS011;54562;47.620;18.786;2022-11-20T13:44:42;27.10;;;14.20;;
67757;SDS011;54562;47.620;18.786;2022-11-20T13:47:54;19.50;;;9.40;;
67757;SDS011;54562;47.620;18.786;2022-11-20T13:51:09;31.50;;;15.70;;
67757;SDS011;54562;47.620;18.786;2022-11-20T13:54:42;27.30;;;13.10;;
67757;SDS011;54562;47.620;18.786;2022-11-20T13:58:09;26.80;;;13.20;;
67757;SDS011;54562;47.620;18.786;2022-11-20T14:01:33;28.00;;;14.00;;
67757;SDS011;54562;47.620;18.786;2022-11-20T14:04:49;31.70;;;15.40;;
67757;SDS011;54562;47.620;18.786;2022-11-20T14:08:04;29.70;;;15.30;;
67757;SDS011;54562;47.620;18.786;2022-11-20T14:11:28;30.60;;;14.90;;
67757;SDS011;54562;47.620;18.786;2022-11-20T14:14:49;32.20;;;16.60;;
67757;SDS011;54562;47.620;18.786;2022-11-20T14:18:11;31.60;;;15.30;;
67757;SDS011;54562;47.620;18.786;2022-11-20T14:21:25;28.70;;;15.00;;
67757;SDS011;54562;47.620;18.786;2022-11-20T14:24:36;28.20;;;13.70;;
67757;SDS011;54562;47.620;18.786;2022-11-20T14:27:47;30.60;;;14.30;;
67757;SDS011;54562;47.620;18.786;2022-11-20T14:30:59;30.70;;;14.20;;
67757;SDS011;54562;47.620;18.786;2022-11-20T14:34:10;31.40;;;15.40;;
67757;SDS011;54562;47.620;18.786;2022-11-20T14:37:24;32.20;;;15.20;;
67757;SDS011;54562;47.620;18.786;2022-11-20T14:40:37;29.00;;;14.80;;
67757;SDS011;54562;47.620;18.786;2022-11-20T14:43:49;32.20;;;15.20;;
67757;SDS011;54562;47.620;18.786;2022-11-20T14:47:01;32.00;;;14.50;;
67757;SDS011;54562;47.620;18.786;2022-11-20T14:50:15;30.60;;;14.60;;
67757;SDS011;54562;47.620;18.786;2022-11-20T14:53:26;28.40;;;13.70;;
67757;SDS011;54562;47.620;18.786;2022-11-20T14:56:34;30.50;;;13.50;;
67757;SDS011;54562;47.620;18.786;2022-11-20T14:59:43;27.10;;;13.70;;
67757;SDS011;54562;47.620;18.786;2022-11-20T15:02:52;28.40;;;14.20;;
67757;SDS011;54562;47.620;18.786;2022-11-20T15:06:00;28.50;;;14.70;;
67757;SDS011;54562;47.620;18.786;2022-11-20T15:09:14;29.60;;;14.50;;
67757;SDS011;54562;47.620;18.786;2022-11-20T15:12:23;28.50;;;14.00;;
67757;SDS011;54562;47.620;18.786;2022-11-20T15:15:34;30.00;;;14.60;;
67757;SDS011;54562;47.620;18.786;2022-11-20T15:18:49;33.60;;;14.70;;
67757;SDS011;54562;47.620;18.786;2022-11-20T15:21:57;31.40;;;15.50;;
67757;SDS011;54562;47.620;18.786;2022-11-20T15:25:13;32.30;;;15.60;;
67757;SDS011;54562;47.620;18.786;2022-11-20T15:28:25;33.80;;;15.80;;
67757;SDS011;54562;47.620;18.786;2022-11-20T15:31:36;33.30;;;16.20;;
67757;SDS011;54562;47.620;18.786;2022-11-20T15:34:46;29.60;;;15.40;;
67757;SDS011;54562;47.620;18.786;2022-11-20T15:37:56;30.60;;;14.90;;
67757;SDS011;54562;47.620;18.786;2022-11-20T15:41:04;30.60;;;13.50;;
67757;SDS011;54562;47.620;18.786;2022-11-20T15:44:13;31.90;;;16.20;;
67757;SDS011;54562;47.620;18.786;2022-11-20T15:47:26;31.30;;;15.50;;
67757;SDS011;54562;47.620;18.786;2022-11-20T15:50:39;29.90;;;14.70;;
67757;SDS011;54562;47.620;18.786;2022-11-20T15:53:56;34.40;;;16.70;;
67757;SDS011;54562;47.620;18.786;2022-11-20T15:57:04;35.50;;;16.70;;
67757;SDS011;54562;47.620;18.786;2022-11-20T16:00:15;34.30;;;16.30;;
67757;SDS011;54562;47.620;18.786;2022-11-20T16:03:27;36.10;;;17.30;;
67757;SDS011;54562;47.620;18.786;2022-11-20T16:06:35;38.20;;;18.10;;
67757;SDS011;54562;47.620;18.786;2022-11-20T16:09:44;36.60;;;18.40;;
67757;SDS011;54562;47.620;18.786;2022-11-20T16:12:52;40.30;;;18.70;;
67757;SDS011;54562;47.620;18.786;2022-11-20T16:16:25;46.30;;;20.10;;
67757;SDS011;54562;47.620;18.786;2022-11-20T16:19:35;44.00;;;19.60;;
67757;SDS011;54562;47.620;18.786;2022-11-20T16:22:44;46.40;;;21.10;;
67757;SDS011;54562;47.620;18.786;2022-11-20T16:25:52;41.10;;;20.10;;
67757;SDS011;54562;47.620;18.786;2022-11-20T16:29:02;43.50;;;19.80;;
67757;SDS011;54562;47.620;18.786;2022-11-20T16:32:11;45.40;;;20.80;;
67757;SDS011;54562;47.620;18.786;2022-11-20T16:35:20;41.70;;;20.20;;
67757;SDS011;54562;47.620;18.786;2022-11-20T16:38:29;44.10;;;21.10;;
67757;SDS011;54562;47.620;18.786;2022-11-20T16:41:37;42.60;;;21.80;;
67757;SDS011;54562;47.620;18.786;2022-11-20T16:44:48;42.70;;;21.00;;
67757;SDS011;54562;47.620;18.786;2022-11-20T16:47:55;39.50;;;20.50;;
67757;SDS011;54562;47.620;18.786;2022-11-20T16:51:03;37.90;;;18.90;;
67757;SDS011;54562;47.620;18.786;2022-11-20T16:54:16;40.80;;;20.40;;
67757;SDS011;54562;47.620;18.786;2022-11-20T16:57:28;40.90;;;19.80;;
67757;SDS011;54562;47.620;18.786;2022-11-20T17:00:38;41.80;;;20.20;;
67757;SDS011;54562;47.620;18.786;2022-11-20T17:03:57;42.50;;;19.50;;
67757;SDS011;54562;47.620;18.786;2022-11-20T17:07:06;43.90;;;21.40;;
67757;SDS011;54562;47.620;18.786;2022-11-20T17:10:16;40.20;;;20.10;;
67757;SDS011;54562;47.620;18.786;2022-11-20T17:13:24;42.80;;;20.90;;
67757;SDS011;54562;47.620;18.786;2022-11-20T17:16:33;43.00;;;20.50;;
67757;SDS011;54562;47.620;18.786;2022-11-20T17:19:45;49.30;;;22.90;;
67757;SDS011;54562;47.620;18.786;2022-11-20T17:22:56;48.50;;;21.90;;
67757;SDS011;54562;47.620;18.786;2022-11-20T17:26:06;47.90;;;20.90;;
67757;SDS011;54562;47.620;18.786;2022-11-20T17:29:17;42.40;;;20.70;;
67757;SDS011;54562;47.620;18.786;2022-11-20T17:32:28;43.90;;;20.70;;
67757;SDS011;54562;47.620;18.786;2022-11-20T17:35:37;40.10;;;19.80;;
67757;SDS011;54562;47.620;18.786;2022-11-20T17:38:46;41.70;;;20.40;;
67757;SDS011;54562;47.620;18.786;2022-11-20T17:41:55;44.50;;;20.60;;
67757;SDS011;54562;47.620;18.786;2022-11-20T17:45:23;41.90;;;20.00;;
67757;SDS011;54562;47.620;18.786;2022-11-20T17:48:32;42.70;;;19.30;;
67757;SDS011;54562;47.620;18.786;2022-11-20T17:51:40;43.90;;;20.20;;
67757;SDS011;54562;47.620;18.786;2022-11-20T17:54:50;35.40;;;17.80;;
67757;SDS011;54562;47.620;18.786;2022-11-20T17:57:59;37.30;;;18.90;;
67757;SDS011;54562;47.620;18.786;2022-11-20T18:01:11;42.40;;;18.80;;
67757;SDS011;54562;47.620;18.786;2022-11-20T18:04:19;37.40;;;18.80;;
67757;SDS011;54562;47.620;18.786;2022-11-20T18:07:28;34.20;;;17.20;;
67757;SDS011;54562;47.620;18.786;2022-11-20T18:10:45;41.70;;;18.10;;
67757;SDS011;54562;47.620;18.786;2022-11-20T18:17:19;35.70;;;17.60;;
67757;SDS011;54562;47.620;18.786;2022-11-20T18:20:28;36.30;;;18.00;;
67757;SDS011;54562;47.620;18.786;2022-11-20T18:23:44;36.70;;;17.30;;
67757;SDS011;54562;47.620;18.786;2022-11-20T18:26:52;38.00;;;18.00;;
67757;SDS011;54562;47.620;18.786;2022-11-20T18:30:01;33.40;;;17.10;;
67757;SDS011;54562;47.620;18.786;2022-11-20T18:33:10;39.00;;;17.50;;
67757;SDS011;54562;47.620;18.786;2022-11-20T18:36:20;31.30;;;15.50;;
67757;SDS011;54562;47.620;18.786;2022-11-20T18:39:30;34.60;;;16.70;;
67757;SDS011;54562;47.620;18.786;2022-11-20T18:42:38;37.60;;;17.50;;
67757;SDS011;54562;47.620;18.786;2022-11-20T18:46:04;36.90;;;17.40;;